CDT,Max TemperatureF,Mean TemperatureF,Min TemperatureF,Max Dew PointF,MeanDew PointF,Min DewpointF,Max Humidity, Mean Humidity, Min Humidity, Max Sea Level PressureIn, Mean Sea Level PressureIn, Min Sea Level PressureIn, Max VisibilityMiles, Mean VisibilityMiles, Min VisibilityMiles, Max Wind SpeedMPH, Mean Wind SpeedMPH, Max Gust SpeedMPH,PrecipitationIn, CloudCover, Events, WindDirDegrees
2013-9-1,91,84,78,77,76,74,90,75,58,29.96,29.92,29.88,10,10,8,14,6,,0.00,0,,229
2013-9-2,90,84,79,77,75,70,88,73,53,30.01,29.94,29.90,10,10,10,13,8,,0.00,0,,222
2013-9-3,91,84,76,79,75,69,92,77,63,30.00,29.95,29.90,10,10,10,13,5,24,0.00,3,Thunderstorm,202
2013-9-4,90,81,73,77,73,70,94,80,62,30.08,30.02,29.96,10,10,10,10,6,,0.00,2,,101
2013-9-5,91,83,75,76,74,73,95,77,55,30.13,30.08,30.05,10,10,10,8,4,,0.00,1,,104
2013-9-6,91,82,75,76,74,70,94,77,55,30.11,30.06,30.01,10,10,7,8,5,,0.00,1,,66
2013-9-7,91,82,74,74,71,68,90,69,50,30.07,30.02,29.99,10,10,10,10,5,,0.00,0,,54
2013-9-8,90,81,73,75,72,70,92,73,55,30.02,29.98,29.96,10,10,9,8,4,,0.00,0,Rain,128
2013-9-9,92,82,73,74,71,69,92,71,48,30.06,30.02,29.97,10,10,10,9,4,,0.00,0,,105
2013-9-10,92,82,74,74,71,68,89,71,49,30.12,30.08,30.04,10,10,10,13,6,,0.00,2,,88
2013-9-11,92,82,73,74,71,68,91,70,47,30.13,30.09,30.05,10,10,10,16,8,,0.00,0,,96
2013-9-12,91,82,72,75,71,68,90,70,49,30.06,30.00,29.94,10,10,10,13,6,,0.00,0,,102
2013-9-13,92,83,74,74,72,68,92,69,45,29.94,29.89,29.82,10,10,10,12,3,,0.00,3,Thunderstorm,214
2013-9-14,88,80,74,74,68,66,82,65,51,29.99,29.93,29.87,10,10,10,12,5,,0.00,3,,57
2013-9-15,90,82,73,75,70,62,84,65,54,30.07,30.03,29.99,10,10,10,10,7,,0.00,0,,114
2013-9-16,89,81,73,75,72,68,95,74,55,30.10,30.05,30.01,10,10,10,17,5,28,0.00,3,,92
2013-9-17,89,81,73,75,72,70,90,72,55,30.09,30.03,29.99,10,10,10,13,7,,0.00,2,,95
2013-9-18,87,81,75,75,73,72,89,78,62,30.08,30.04,30.01,10,10,5,13,10,,0.29,5,Rain-Thunderstorm,95
2013-9-19,88,82,75,76,74,72,90,79,64,30.06,30.03,29.99,10,9,2,17,11,26,0.11,4,Rain,121
2013-9-20,89,82,77,77,75,73,94,78,63,29.98,29.90,29.84,10,9,2,15,8,24,0.12,4,Rain,160
2013-9-21,82,76,71,77,74,69,94,88,77,29.84,29.78,29.72,10,9,2,17,10,24,0.59,5,Rain,245
2013-9-22,81,75,69,69,67,63,94,82,63,29.82,29.78,29.74,10,10,10,16,12,,0.00,4,Rain,39
2013-9-23,87,77,67,77,71,61,92,77,63,29.88,29.84,29.81,10,10,10,12,7,,0.00,2,,84
2013-9-24,84,80,75,77,75,73,95,91,74,29.89,29.82,29.78,10,8,1,14,7,20,0.77,6,Rain-Thunderstorm,102
2013-9-25,88,78,71,74,71,69,100,85,58,29.85,29.80,29.77,10,10,9,12,6,,0.00,3,,341
2013-9-26,88,78,68,70,66,62,88,67,43,29.95,29.89,29.82,10,10,9,10,4,,0.00,1,,305
2013-9-27,84,78,72,70,68,65,88,72,52,30.04,30.00,29.94,10,10,10,12,7,,0.00,2,Rain,102
2013-9-28,84,76,68,68,65,60,88,69,45,30.09,30.05,30.02,10,10,10,12,7,,0.00,0,Rain,100
2013-9-29,84,76,69,67,65,63,83,70,54,30.06,30.01,29.97,10,10,10,10,7,,0.00,4,Rain,73
2013-9-30,81,76,71,70,68,65,94,79,62,30.00,29.97,29.94,10,10,6,9,6,,0.05,4,Rain,98